»·PEaware :: N16RD KCMA-CL46

N16RD :: KCMA-CL46

FLIGHT INFORMATION

Flight Status: Arrived
Operator: Privately registered:
United States
More flights under this callsign
Pilot: Brett B. (12105)
Aircraft: CESSNA 162 Skycatcher
(C162)
More flights by this aircraft type
Origin: KCMA Camarillo
United States
Destination: CL46 Quail Lake Sky Park
Canada
More flights between these airports :: More routes between these airports
Route:
File this flight plan on PilotEdge
Remarks:
Altitude:
(Current/Filed)
2,500ft
Speed:
(Current/Filed)
115kts
Departed: 24-Feb-19 05:52 PM
Arrived: 24-Feb-19 06:29 PM
Distance/Time
Traveled:
38nm/0:37
Distance/Time
To Go:
Arrived

Flight Plot

Page will automatically refresh every two minutes.

Flight plan parsing failed; only flown route is shown


Map Options




Map Legend


Flown Route
Filed Route
Departure Airport
Arrival Airport
Navaid (VOR, NDB)
Fix

Horizontal Profiles

Position Reports

Time Latitude Longitude Heading Altitude Ground
Speed
24-Feb-19 17:37 34.210906 -119.096276 180 80ft 0kts
24-Feb-19 17:38 34.210906 -119.096276 180 80ft 0kts
24-Feb-19 17:39 34.210906 -119.096276 180 80ft 0kts
24-Feb-19 17:40 34.210906 -119.096276 180 80ft 0kts
24-Feb-19 17:41 34.210906 -119.096276 180 80ft 0kts
24-Feb-19 17:42 34.210906 -119.096276 180 80ft 0kts
24-Feb-19 17:43 34.210906 -119.096276 180 80ft 0kts
24-Feb-19 17:44 34.210950 -119.095572 80 80ft 5kts
24-Feb-19 17:45 34.211377 -119.093487 91 80ft 15kts
24-Feb-19 17:46 34.211292 -119.090805 90 80ft 0kts
24-Feb-19 17:47 34.211342 -119.089620 89 80ft 4kts
24-Feb-19 17:48 34.211307 -119.085420 91 80ft 3kts
24-Feb-19 17:49 34.213140 -119.084593 0 80ft 0kts
24-Feb-19 17:50 34.213638 -119.084809 286 80ft 8kts
24-Feb-19 17:51 34.214024 -119.104751 267 465ft 76kts
24-Feb-19 17:52 34.220230 -119.128799 324 1174ft 84kts
24-Feb-19 17:53 34.241325 -119.127268 48 1941ft 84kts
24-Feb-19 17:54 34.254026 -119.103636 58 2672ft 81kts
24-Feb-19 17:55 34.266016 -119.081293 55 3319ft 79kts
24-Feb-19 17:56 34.279021 -119.058499 53 3881ft 87kts
24-Feb-19 17:57 34.295504 -119.036238 42 4385ft 88kts
24-Feb-19 17:58 34.312773 -119.016687 40 4862ft 82kts
24-Feb-19 17:59 34.329735 -118.998332 38 5395ft 84kts
24-Feb-19 18:00 34.347839 -118.979341 43 5877ft 83kts
24-Feb-19 18:01 34.360075 -118.957210 57 6332ft 76kts
24-Feb-19 18:02 34.369713 -118.935714 54 6794ft 69kts
24-Feb-19 18:03 34.379853 -118.916809 45 7267ft 65kts
24-Feb-19 18:04 34.394363 -118.896254 43 7253ft 104kts
24-Feb-19 18:05 34.411752 -118.872791 43 7671ft 92kts
24-Feb-19 18:06 34.429372 -118.849408 42 8026ft 88kts
24-Feb-19 18:07 34.444687 -118.829023 41 8379ft 77kts
24-Feb-19 18:08 34.461524 -118.812464 26 8604ft 95kts
24-Feb-19 18:09 34.487406 -118.797095 17 8506ft 98kts
24-Feb-19 18:10 34.512533 -118.787078 11 8543ft 96kts
24-Feb-19 18:11 34.539385 -118.781054 4 8568ft 103kts
24-Feb-19 18:12 34.568336 -118.777827 9 8575ft 102kts
24-Feb-19 18:13 34.597241 -118.770565 9 8243ft 111kts
24-Feb-19 18:14 34.628149 -118.762941 9 7653ft 116kts
24-Feb-19 18:15 34.661019 -118.754953 9 6891ft 121kts
24-Feb-19 18:16 34.691445 -118.747477 9 6493ft 100kts
24-Feb-19 18:17 34.717764 -118.740957 8 6519ft 99kts
24-Feb-19 18:18 34.748797 -118.728899 25 5634ft 113kts
24-Feb-19 18:19 34.772815 -118.712176 28 4679ft 93kts
24-Feb-19 18:20 34.794190 -118.696401 29 3927ft 90kts
24-Feb-19 18:21 34.815765 -118.680335 26 3469ft 92kts
24-Feb-19 18:22 34.838930 -118.673597 317 3707ft 88kts
24-Feb-19 18:23 34.824096 -118.694063 153 3678ft 102kts
24-Feb-19 18:24 34.806634 -118.668982 101 3877ft 96kts
24-Feb-19 18:25 34.818952 -118.654695 305 4093ft 89kts
24-Feb-19 18:26 34.799339 -118.679880 210 3803ft 109kts
24-Feb-19 18:27 34.781858 -118.696001 112 3301ft 62kts
24-Feb-19 18:28 34.784578 -118.688838 38 3099ft 0kts
24-Feb-19 18:29 34.784574 -118.688837 38 3099ft 0kts
24-Feb-19 18:30 34.784570 -118.688835 38 3099ft 0kts
24-Feb-19 18:31 34.784726 -118.688777 5 3105ft 0kts
24-Feb-19 18:32 34.784719 -118.688778 6 3104ft 0kts
24-Feb-19 18:33 34.784679 -118.688785 6 3102ft 0kts
24-Feb-19 18:34 34.784662 -118.688788 6 3101ft 0kts
24-Feb-19 18:35 34.784655 -118.688789 6 3101ft 0kts
24-Feb-19 18:36 34.784648 -118.688791 6 3101ft 0kts
24-Feb-19 18:37 34.784643 -118.688791 6 3101ft 0kts
24-Feb-19 18:38 34.784642 -118.688791 6 3101ft 0kts
24-Feb-19 18:40 34.784642 -118.688791 6 3101ft 0kts
24-Feb-19 18:41 34.784642 -118.688791 6 3101ft 0kts
24-Feb-19 18:42 34.767990 -118.727905 274 3340ft 0kts
24-Feb-19 18:43 34.767990 -118.727905 274 3340ft 0kts

Navigation Log

Ident Type
Flight plan parsing failed, navigation log unavailable